Latest Weather Observations for Salmon Gums RS

IDW60801

Issued at 7:35 pm WST Saturday 1 November 2014 (issued every 30 minutes, with the page automatically refreshed every 10 minutes)

About weather observations | Map of weather stations | Latest weather observations for WA | Other Formats
Station Details ID: 012071 Name: SALMON GUMS RES.STN. Lat: -32.99 Lon: 121.62 Height: 249.0 m
Data from the previous 72 hours. | See also: Recent months at Salmon Gums RS
Date/Time
WST
Temp
°C
App
Temp
°C
Dew
Point
Rel
Hum
%
Delta-T
°C
Wind Press
QNH
hPa
Press
MSL
hPa
Rain
since 9 am
mm
Dir
 
Spd
km/h
Gust
km/h
Spd
kts
Gust
kts
01/07:30pm 14.5 12.7 1.4 41 5.8 N 0 0 0 0 - - 0.0
01/07:00pm 15.6 13.8 1.0 37 6.4 N 0 4 0 2 - - 0.0
01/06:30pm 18.9 17.1 1.4 31 8.0 CALM 0 0 0 0 - - 0.0
01/06:00pm 22.3 19.6 0.2 23 10.1 N 4 6 2 3 - - 0.0
01/05:30pm 23.4 20.4 0.5 22 10.6 N 6 13 3 7 - - 0.0
01/05:00pm 23.7 20.7 0.7 22 10.7 NE 6 11 3 6 - - 0.0
01/04:30pm 23.9 20.7 0.9 22 10.8 NNE 7 13 4 7 - - 0.0
01/04:00pm 23.8 20.3 1.4 23 10.6 SSE 9 15 5 8 - - 0.0
01/03:30pm 23.6 19.7 1.3 23 10.5 ENE 11 19 6 10 - - 0.0
01/03:00pm 24.1 21.1 2.3 24 10.5 E 7 13 4 7 - - 0.0
01/02:30pm 23.1 19.6 1.5 24 10.2 ENE 9 22 5 12 - - 0.0
01/02:00pm 23.0 18.8 1.9 25 10.0 E 13 24 7 13 - - 0.0
01/01:30pm 22.8 19.1 2.3 26 9.8 E 11 20 6 11 - - 0.0
01/01:00pm 21.8 18.4 2.0 27 9.3 NNE 9 19 5 10 - - 0.0
01/12:30pm 21.2 17.6 3.0 30 8.7 N 11 20 6 11 - - 0.0
01/12:00pm 21.6 17.7 1.3 26 9.4 E 11 20 6 11 - - 0.0
01/11:30am 20.3 15.8 2.2 30 8.5 ENE 15 24 8 13 - - 0.0
01/11:00am 20.1 16.2 3.3 33 8.0 NNE 13 26 7 14 - - 0.0
01/10:30am 18.8 15.2 3.0 35 7.4 NE 11 24 6 13 - - 0.0
01/10:00am 17.8 13.8 2.9 37 6.9 ENE 13 22 7 12 - - 0.0
01/09:30am 17.1 13.2 3.4 40 6.4 NE 13 22 7 12 - - 0.0
01/09:00am 16.7 12.7 4.7 45 5.8 NE 15 26 8 14 - - 0.0
01/08:30am 15.9 11.8 4.3 46 5.5 ENE 15 24 8 13 - - 0.0
01/08:00am 15.4 10.6 4.5 48 5.2 ENE 19 28 10 15 - - 0.0
01/07:30am 14.8 10.8 5.1 52 4.6 NE 15 20 8 11 - - 0.0
01/07:00am 13.9 10.1 5.8 58 3.9 ENE 15 20 8 11 - - 0.0
01/06:30am 12.1 10.2 7.4 73 2.3 ENE 7 9 4 5 - - 0.0
01/06:00am 7.8 7.0 6.4 91 0.6 CALM 0 0 0 0 - - 0.0
01/05:30am 3.5 1.8 2.0 90 0.6 CALM 0 0 0 0 - - 0.0
01/05:00am 2.9 1.1 1.3 89 0.6 CALM 0 0 0 0 - - 0.0
01/04:30am 3.5 1.7 1.5 87 0.8 CALM 0 0 0 0 - - 0.0
01/04:00am 4.0 1.9 2.0 87 0.8 NW 2 4 1 2 - - 0.0
01/03:30am 4.5 2.9 2.4 86 0.9 CALM 0 0 0 0 - - 0.0
01/03:00am 4.8 2.8 2.5 85 0.9 NW 2 4 1 2 - - 0.0
01/02:30am 5.7 3.9 3.7 87 0.9 NW 2 4 1 2 - - 0.0
01/02:00am 4.8 2.9 3.0 88 0.7 NW 2 4 1 2 - - 0.0
01/01:30am 4.5 2.9 2.4 86 0.9 CALM 0 2 0 1 - - 0.0
01/01:00am 4.3 1.3 2.0 85 0.9 NW 7 7 4 4 - - 0.0
01/12:30am 4.9 2.5 2.3 83 1.1 WSW 4 6 2 3 - - 0.0
01/12:00am 6.1 4.6 3.1 81 1.3 WSW 0 0 0 0 - - 0.0
 
Date/Time
WST
Temp
°C
App
Temp
°C
Dew
Point
Rel
Hum
%
Delta-T
°C
Wind Press
QNH
hPa
Press
MSL
hPa
Rain
since 9 am
mm
Dir
 
Spd
km/h
Gust
km/h
Spd
kts
Gust
kts
31/11:30pm 7.1 5.5 4.4 83 1.2 WSW 2 4 1 2 - - 0.0
31/11:00pm 6.0 4.2 3.3 83 1.1 SSE 2 4 1 2 - - 0.0
31/10:30pm 5.9 4.3 2.7 80 1.3 CALM 0 0 0 0 - - 0.0
31/10:00pm 6.8 5.0 3.2 78 1.5 SSE 2 4 1 2 - - 0.0
31/09:30pm 8.1 5.9 3.6 73 2.0 S 4 4 2 2 - - 0.0
31/09:00pm 9.6 7.2 4.4 70 2.3 SSE 6 6 3 3 - - 0.0
31/08:30pm 10.7 7.8 4.8 67 2.7 SSE 9 13 5 7 - - 0.0
31/08:00pm 11.9 8.4 5.3 64 3.1 S 13 19 7 10 - - 0.0
31/07:30pm 12.3 8.8 5.5 63 3.2 S 13 19 7 10 - - 0.0
31/07:00pm 13.1 9.2 5.3 59 3.7 S 15 20 8 11 - - 0.0
31/06:30pm 13.8 9.9 5.2 56 4.1 S 15 22 8 12 - - 0.0
31/06:00pm 15.1 10.2 5.3 52 4.7 S 20 28 11 15 - - 0.0
31/05:30pm 16.2 10.9 5.2 48 5.3 S 22 32 12 17 - - 0.0
31/05:00pm 17.5 11.8 5.1 44 6.0 S 24 33 13 18 - - 0.0
31/04:30pm 18.4 13.4 4.6 40 6.7 S 20 30 11 16 - - 0.0
31/04:00pm 19.2 13.5 4.9 39 7.0 S 24 32 13 17 - - 0.0
31/03:30pm 19.2 13.1 3.0 34 7.6 S 24 35 13 19 - - 0.0
31/03:00pm 19.4 13.4 3.2 34 7.7 SSW 24 35 13 19 - - 0.0
31/02:30pm 20.1 14.3 4.2 35 7.7 SSW 24 41 13 22 - - 0.0
31/02:00pm 20.0 13.8 4.1 35 7.7 SSW 26 37 14 20 - - 0.0
31/01:30pm 20.5 14.4 4.9 36 7.7 S 26 37 14 20 - - 0.0
31/01:00pm 20.4 13.4 4.0 34 8.0 S 30 41 16 22 - - 0.0
31/12:30pm 19.4 12.8 4.0 36 7.4 SSW 28 41 15 22 - - 0.0
31/12:00pm 20.9 15.1 6.4 39 7.4 SSW 26 37 14 20 - - 0.0
31/11:30am 19.5 13.3 4.4 37 7.3 SSW 26 44 14 24 - - 0.0
31/11:00am 18.9 11.4 6.1 43 6.4 SSW 35 48 19 26 - - 0.0
31/10:56am 18.7 12.2 6.5 45 6.1 SSW 30 48 16 26 - - 0.0
31/10:30am 19.1 12.6 4.5 38 7.1 SSW 28 41 15 22 - - 0.0
31/10:00am 19.3 13.4 7.7 47 6.0 SSW 28 41 15 22 - - 0.0
31/09:30am 18.5 12.9 8.7 53 5.1 SSW 28 41 15 22 - - 0.0
31/09:00am 16.8 10.5 8.8 59 4.2 SSW 32 46 17 25 - - 0.2
31/08:34am 16.6 11.2 9.5 63 3.7 SSW 28 46 15 25 - - 0.2
31/08:30am 17.0 11.3 9.9 63 3.8 SSW 30 46 16 25 - - 0.2
31/08:00am 14.8 11.4 11.2 79 1.9 SW 20 30 11 16 - - 0.2
31/07:30am 12.4 6.9 10.6 89 0.9 SSW 30 48 16 26 - - 0.2
31/07:24am 12.2 7.0 10.3 88 1.0 SW 28 48 15 26 - - 0.2
31/07:00am 14.5 10.2 10.7 78 2.0 WSW 24 37 13 20 - - 0.0
31/06:30am 16.1 13.4 11.7 75 2.4 W 17 26 9 14 - - 0.0
31/06:00am 14.9 13.3 11.5 80 1.8 W 11 17 6 9 - - 0.0
31/05:30am 14.3 13.7 11.6 84 1.5 WNW 6 7 3 4 - - 0.0
31/05:00am 13.9 12.9 11.1 83 1.5 WNW 7 11 4 6 - - 0.0
31/04:30am 14.0 13.2 11.2 83 1.5 NW 6 7 3 4 - - 0.0
31/04:00am 14.5 14.1 11.1 80 1.8 WNW 4 4 2 2 - - 0.0
31/03:30am 15.0 14.7 11.6 80 1.9 WNW 4 6 2 3 - - 0.0
31/03:00am 14.9 15.0 11.5 80 1.8 SW 2 4 1 2 - - 0.0
31/02:30am 14.9 14.6 11.5 80 1.8 SSW 4 6 2 3 - - 0.0
31/02:00am 14.9 13.6 11.3 79 1.9 SSW 9 13 5 7 - - 0.0
31/01:30am 14.9 14.0 11.5 80 1.8 S 7 13 4 7 - - 0.0
31/01:00am 14.8 13.8 11.0 78 2.0 SSW 7 9 4 5 - - 0.0
31/12:30am 14.7 13.0 11.1 79 1.9 S 11 17 6 9 - - 0.0
31/12:00am 14.4 12.4 11.4 82 1.6 S 13 19 7 10 - - 0.0
 
Date/Time
WST
Temp
°C
App
Temp
°C
Dew
Point
Rel
Hum
%
Delta-T
°C
Wind Press
QNH
hPa
Press
MSL
hPa
Rain
since 9 am
mm
Dir
 
Spd
km/h
Gust
km/h
Spd
kts
Gust
kts
30/11:30pm 13.8 12.6 11.7 87 1.1 SSW 9 13 5 7 - - 0.0
30/11:00pm 13.4 11.7 11.1 86 1.2 S 11 15 6 8 - - 0.0
30/10:30pm 13.8 12.5 11.1 84 1.4 S 9 15 5 8 - - 0.0
30/10:00pm 14.3 13.0 11.3 82 1.6 S 9 13 5 7 - - 0.0
30/09:30pm 14.8 13.5 11.4 80 1.8 S 9 13 5 7 - - 0.0
30/09:00pm 15.5 13.8 11.3 76 2.3 S 11 15 6 8 - - 0.0
30/08:30pm 16.1 13.8 11.7 75 2.4 S 15 19 8 10 - - 0.0
30/08:00pm 16.6 14.0 12.0 74 2.5 S 17 22 9 12 - - 0.0
30/07:30pm 17.4 14.9 12.3 72 2.9 SSE 17 22 9 12 - - 0.0
30/07:00pm 18.3 15.5 12.5 69 3.3 SSE 19 26 10 14 - - 0.0
30/06:30pm 19.1 16.3 12.6 66 3.7 S 19 26 10 14 - - 0.0
30/06:00pm 20.6 17.7 12.8 61 4.5 SSE 20 30 11 16 - - 0.0
30/05:30pm 23.1 19.9 13.0 53 5.9 SSE 22 33 12 18 - - 0.0
30/05:00pm 24.6 20.8 12.5 46 7.0 S 24 33 13 18 - - 0.0
30/04:30pm 25.8 21.4 13.0 45 7.5 S 28 43 15 23 - - 0.0
30/04:00pm 29.4 27.1 10.5 31 10.9 W 13 26 7 14 - - 0.0
30/03:30pm 29.9 29.1 10.9 31 11.0 W 6 13 3 7 - - 0.0
30/03:00pm 30.1 28.1 11.6 32 10.8 SSW 13 22 7 12 - - 0.0
30/02:30pm 29.4 28.7 11.9 34 10.3 SSW 7 26 4 14 - - 0.0
30/02:00pm 28.5 27.0 10.7 33 10.2 WSW 9 17 5 9 - - 0.0
30/01:30pm 27.8 26.5 11.4 36 9.5 SSE 9 19 5 10 - - 0.0
30/01:00pm 27.3 25.5 12.1 39 8.9 SSE 13 20 7 11 - - 0.0
30/12:30pm 27.2 25.9 12.4 40 8.7 SSW 11 22 6 12 - - 0.0
30/12:00pm 26.1 24.8 12.5 42 8.0 SW 11 22 6 12 - - 0.0
30/11:30am 25.6 24.5 12.1 43 7.8 SW 9 19 5 10 - - 0.0
30/11:00am 24.0 22.9 12.0 47 6.9 SW 9 19 5 10 - - 0.0
30/10:30am 24.1 23.6 12.7 49 6.6 S 7 13 4 7 - - 0.0
30/10:00am 22.3 22.0 13.4 57 5.2 SSW 7 11 4 6 - - 0.0
30/09:30am 20.9 20.7 13.1 61 4.5 S 6 9 3 5 - - 0.0
30/09:00am 20.5 20.3 13.0 62 4.3 SW 6 9 3 5 - - 0.0
30/08:30am 19.8 19.5 12.6 63 4.1 S 6 11 3 6 - - 0.0
30/08:00am 19.0 18.6 12.3 65 3.8 SE 6 11 3 6 - - 0.0
30/07:30am 18.4 17.8 13.5 73 2.8 S 9 13 5 7 - - 0.0
30/07:00am 16.7 16.2 12.8 78 2.2 S 7 11 4 6 - - 0.0
30/06:30am 16.1 15.4 13.2 83 1.6 S 9 13 5 7 - - 0.0
30/06:00am 15.7 15.6 13.2 85 1.4 WSW 6 7 3 4 - - 0.0
30/05:30am 15.7 15.4 13.2 85 1.4 W 7 13 4 7 - - 0.0
30/05:00am 15.6 14.9 13.1 85 1.4 SW 9 13 5 7 - - 0.0
30/04:30am 15.5 15.0 12.8 84 1.5 SW 7 13 4 7 - - 0.0
30/04:00am 15.4 15.2 12.9 85 1.4 SW 6 7 3 4 - - 0.0
30/03:30am 15.2 14.1 13.1 87 1.2 S 11 13 6 7 - - 0.0
30/03:00am 15.7 14.3 13.4 86 1.3 S 13 20 7 11 - - 0.0
30/02:30am 15.8 15.1 13.3 85 1.4 SSW 9 13 5 7 - - 0.0
30/02:00am 15.9 15.2 13.2 84 1.5 SW 9 13 5 7 - - 0.0
30/01:30am 16.0 15.0 13.3 84 1.5 SW 11 19 6 10 - - 0.0
30/01:00am 15.8 14.0 13.3 85 1.4 SSW 15 19 8 10 - - 0.0
30/12:30am 16.0 15.5 13.8 87 1.3 S 9 13 5 7 - - 0.0
30/12:00am 15.8 14.9 13.6 87 1.2 SW 11 15 6 8 - - 0.0
 
Date/Time
WST
Temp
°C
App
Temp
°C
Dew
Point
Rel
Hum
%
Delta-T
°C
Wind Press
QNH
hPa
Press
MSL
hPa
Rain
since 9 am
mm
Dir
 
Spd
km/h
Gust
km/h
Spd
kts
Gust
kts
29/11:30pm 16.1 15.6 13.9 87 1.3 SSW 9 17 5 9 - - 0.0
29/11:00pm 15.9 15.0 13.7 87 1.3 SSW 11 17 6 9 - - 0.0
29/10:30pm 15.6 15.4 13.6 88 1.1 SSW 7 9 4 5 - - 0.0
29/10:00pm 16.1 15.5 13.6 85 1.4 SSE 9 11 5 6 - - 0.0
29/09:30pm 16.1 15.5 13.6 85 1.4 SSE 9 11 5 6 - - 0.0
29/09:00pm 16.6 15.2 13.5 82 1.8 S 13 17 7 9 - - 0.0
29/08:30pm 16.7 14.7 14.0 84 1.6 S 17 22 9 12 - - 0.0
29/08:00pm 16.4 14.8 13.9 85 1.4 S 15 20 8 11 - - 0.0

Other Formats:

Comma delimited format used in spreadsheet applications
http://www.bom.gov.au/fwo/IDW60801/IDW60801.95639.axf

JavaScript Object Notation format (JSON) in row-major order
http://www.bom.gov.au/fwo/IDW60801/IDW60801.95639.json